Time;durP1;ratioP1;P1;durP2;ratioP2;P2;SDS_P1;SDS_P2;PMS_P1;PMS_P2;Temp;Humidity;BMP_temperature;BMP_pressure;BME280_temperature;BME280_humidity;BME280_pressure;Samples;Min_cycle;Max_cycle;Signal;HPM_P1;HPM_P2
2022/12/01 00:01:07;;;;;;;7.15;5.75;;;;;;;4.31;100.00;102133.03;6021212;23;20162;-73
2022/12/01 00:03:34;;;;;;;5.80;5.38;;;;;;;5.39;100.00;102264.41;6018096;23;20031;-73
2022/12/01 00:06:06;;;;;;;7.68;6.75;;;;;;;4.69;100.00;102148.50;6043454;23;20034;-72
2022/12/01 00:08:33;;;;;;;6.45;5.57;;;;;;;5.40;100.00;102265.25;5991624;23;20023;-72
2022/12/01 00:11:08;;;;;;;6.05;5.50;;;;;;;5.37;100.00;102268.75;6039742;23;20035;-72
2022/12/01 00:13:34;;;;;;;8.85;7.70;;;;;;;4.84;100.00;102175.31;5992856;23;20081;-72
2022/12/01 00:16:15;;;;;;;10.20;6.65;;;;;;;5.40;100.00;102275.66;6055596;23;20123;-72
2022/12/01 00:18:42;;;;;;;6.95;6.40;;;;;;;4.20;100.00;102068.97;6019077;23;20015;-72
2022/12/01 00:21:17;;;;;;;6.45;5.85;;;;;;;5.39;100.00;102264.41;6046189;23;20027;-72
2022/12/01 00:23:46;;;;;;;7.65;6.95;;;;;;;5.04;100.00;102209.06;5998091;23;20020;-73
2022/12/01 00:26:13;;;;;;;7.68;6.97;;;;;;;5.42;100.00;102252.22;6040449;23;20503;-72
2022/12/01 00:28:40;;;;;;;8.65;5.88;;;;;;;4.10;100.00;102050.84;6019400;23;20015;-72
2022/12/01 00:31:07;;;;;;;8.15;7.30;;;;;;;2.62;100.00;101804.69;6008158;23;20023;-73
2022/12/01 00:33:34;;;;;;;8.30;7.47;;;;;;;5.37;100.00;102257.44;5994850;23;20173;-73
2022/12/01 00:36:01;;;;;;;10.65;5.65;;;;;;;4.63;100.00;102153.75;6026605;23;20022;-72
2022/12/01 00:38:27;;;;;;;6.78;6.18;;;;;;;4.12;100.00;102052.56;6015927;23;20112;-72
2022/12/01 00:40:54;;;;;;;11.27;8.18;;;;;;;5.43;100.00;102269.56;6052821;23;20065;-72
2022/12/01 00:43:20;;;;;;;7.57;6.88;;;;;;;4.25;100.00;102055.97;6014074;23;20264;-72
2022/12/01 00:45:46;;;;;;;9.02;5.53;;;;;;;5.12;100.00;102213.34;6035506;23;20023;-72
2022/12/01 00:48:13;;;;;;;8.65;6.78;;;;;;;3.08;100.00;101877.19;6003848;23;20019;-73
2022/12/01 00:50:40;;;;;;;7.95;6.68;;;;;;;4.82;100.00;102164.91;6052933;23;20038;-72
2022/12/01 00:53:06;;;;;;;9.30;8.00;;;;;;;5.40;100.00;102262.66;5981901;23;20023;-72
2022/12/01 00:55:33;;;;;;;7.95;6.93;;;;;;;5.10;100.00;102215.06;6055958;23;20014;-72
2022/12/01 00:57:59;;;;;;;6.75;5.88;;;;;;;4.74;100.00;102144.13;6030573;23;20010;-72
2022/12/01 01:00:26;;;;;;;8.30;7.53;;;;;;;4.94;100.00;102190.88;6041953;23;20105;-72
2022/12/01 01:02:52;;;;;;;8.55;6.78;;;;;;;5.38;100.00;102267.84;6021597;23;20069;-72
2022/12/01 01:05:19;;;;;;;14.68;7.53;;;;;;;4.44;100.00;102128.69;6048819;23;20030;-72
2022/12/01 01:07:45;;;;;;;10.52;7.20;;;;;;;5.19;100.00;102237.56;6025269;23;20043;-72
2022/12/01 01:10:12;;;;;;;16.85;8.57;;;;;;;4.27;100.00;102092.34;6040902;23;20094;-72
2022/12/01 01:12:38;;;;;;;8.43;7.72;;;;;;;4.50;100.00;102126.06;6013495;23;20110;-72
2022/12/01 01:15:05;;;;;;;6.53;5.97;;;;;;;5.37;100.00;102278.25;6044684;23;20046;-75
2022/12/01 01:17:33;;;;;;;9.10;8.20;;;;;;;5.39;100.00;102285.22;6016266;23;20221;-71
2022/12/01 01:19:59;;;;;;;7.80;7.10;;;;;;;4.82;100.00;102198.72;6028548;23;20495;-72
2022/12/01 01:22:26;;;;;;;7.65;6.95;;;;;;;4.46;100.00;102127.78;5999531;23;20027;-71
2022/12/01 01:24:54;;;;;;;6.75;6.22;;;;;;;5.15;100.00;102244.56;6021634;23;20015;-71
2022/12/01 01:27:21;;;;;;;6.82;6.18;;;;;;;5.13;100.00;102241.09;6012907;23;20281;-71
2022/12/01 01:29:47;;;;;;;8.70;6.05;;;;;;;4.80;100.00;102192.66;6036455;23;20074;-71
2022/12/01 01:32:14;;;;;;;12.43;7.50;;;;;;;4.86;100.00;102202.19;6014801;23;20105;-72
2022/12/01 01:34:40;;;;;;;8.48;6.35;;;;;;;5.17;100.00;102326.09;6040854;23;20035;-71
2022/12/01 01:37:06;;;;;;;8.60;7.00;;;;;;;5.38;100.00;102298.25;5992886;23;20067;-71
2022/12/01 01:39:33;;;;;;;7.32;5.85;;;;;;;5.16;100.00;102277.50;6038776;23;20277;-71
2022/12/01 01:41:59;;;;;;;8.27;7.30;;;;;;;5.02;100.00;102255.88;6016304;23;20074;-72
2022/12/01 01:44:48;;;;;;;13.40;8.60;;;;;;;4.79;100.00;102229.94;6044839;23;20026;-72
2022/12/01 01:47:27;;;;;;;5.93;5.40;;;;;;;2.90;100.00;101940.31;6016339;23;20022;-72
2022/12/01 01:49:56;;;;;;;12.65;7.63;;;;;;;4.20;100.00;102213.63;6040741;23;20019;-72
2022/12/01 01:52:23;;;;;;;5.85;5.43;;;;;;;4.86;100.00;102236.00;6022584;23;20429;-72
2022/12/01 01:54:54;;;;;;;8.40;7.57;;;;;;;5.14;100.00;102287.06;6008253;23;20051;-72
2022/12/01 01:57:30;;;;;;;10.65;7.70;;;;;;;4.79;100.00;102229.94;6019193;23;20040;-71
2022/12/01 02:00:03;;;;;;;7.53;6.70;;;;;;;5.28;100.00;102312.16;6020610;23;20010;-71
2022/12/01 02:02:30;;;;;;;10.45;7.35;;;;;;;4.77;100.00;102287.19;5987805;23;20012;-74
2022/12/01 02:05:01;;;;;;;7.32;6.72;;;;;;;5.27;100.00;102300.00;6014575;23;20023;-73
2022/12/01 02:07:27;;;;;;;11.15;7.53;;;;;;;5.28;100.00;102304.38;6012257;23;20011;-72
2022/12/01 02:09:54;;;;;;;7.15;6.50;;;;;;;4.38;100.00;102161.59;6019601;23;20021;-72
2022/12/01 02:12:30;;;;;;;11.40;7.53;;;;;;;5.32;100.00;102313.88;6004574;23;20070;-72
2022/12/01 02:15:07;;;;;;;6.75;6.15;;;;;;;5.34;100.00;102302.59;6041871;23;20034;-72
2022/12/01 02:18:01;;;;;;;12.70;8.02;;;;;;;5.33;100.00;102306.06;6011066;23;20015;-72
2022/12/01 02:20:59;;;;;;;19.77;7.20;;;;;;;5.27;100.00;102300.91;6031942;23;20377;-72
2022/12/01 02:23:55;;;;;;;7.60;6.05;;;;;;;5.28;100.00;102306.97;6008906;23;20011;-72
2022/12/01 02:26:47;;;;;;;6.85;6.35;;;;;;;5.26;100.00;102306.97;6047782;23;20234;-72
2022/12/01 02:29:50;;;;;;;9.63;6.45;;;;;;;5.30;100.00;102305.22;6017953;23;20027;-71
2022/12/01 02:32:23;;;;;;;6.82;6.10;;;;;;;5.29;100.00;102303.47;6028203;23;20382;-72
2022/12/01 02:35:03;;;;;;;7.43;6.82;;;;;;;5.24;100.00;102307.84;6010140;23;20065;-72
2022/12/01 02:37:35;;;;;;;10.63;6.00;;;;;;;4.07;100.00;102108.88;6044844;23;20072;-72
2022/12/01 02:40:16;;;;;;;8.00;6.97;;;;;;;5.25;100.00;102310.44;6012635;23;20378;-72
2022/12/01 02:43:01;;;;;;;9.15;8.35;;;;;;;4.63;100.00;102226.56;6053726;23;20014;-72
2022/12/01 02:45:36;;;;;;;6.72;6.18;;;;;;;4.14;100.00;102117.50;6011095;23;20107;-72
2022/12/01 02:48:07;;;;;;;8.82;5.78;;;;;;;4.89;100.00;102251.59;6014430;23;20248;-72
2022/12/01 02:50:36;;;;;;;6.55;6.05;;;;;;;4.11;100.00;102154.75;6011743;23;20019;-73
2022/12/01 02:53:06;;;;;;;9.70;7.45;;;;;;;5.20;100.00;102307.84;6035297;23;20112;-73
2022/12/01 02:55:32;;;;;;;11.25;7.75;;;;;;;3.71;100.00;102074.31;5975155;23;20031;-73
2022/12/01 02:57:59;;;;;;;10.52;6.20;;;;;;;5.22;100.00;102297.44;6050031;23;20030;-74
2022/12/01 03:00:25;;;;;;;18.17;7.72;;;;;;;4.37;100.00;102166.81;6011208;23;20014;-73
2022/12/01 03:03:09;;;;;;;12.75;7.78;;;;;;;4.75;100.00;102243.81;6047701;23;20018;-73
2022/12/01 03:05:48;;;;;;;12.90;8.20;;;;;;;5.17;100.00;102309.59;6004932;23;20079;-72
2022/12/01 03:08:53;;;;;;;6.35;5.50;;;;;;;5.20;100.00;102307.00;6040639;23;20059;-72
2022/12/01 03:11:28;;;;;;;6.93;6.22;;;;;;;4.90;100.00;102284.53;5889670;24;20044;-72
2022/12/01 03:14:13;;;;;;;8.93;7.82;;;;;;;5.15;100.00;102313.94;5935893;24;20091;-72
2022/12/01 03:16:49;;;;;;;10.27;6.90;;;;;;;5.17;100.00;102310.47;5971227;23;20556;-72
2022/12/01 03:19:28;;;;;;;9.07;7.45;;;;;;;3.57;100.00;102045.78;6043737;23;20086;-72
2022/12/01 03:22:18;;;;;;;16.17;7.43;;;;;;;5.12;100.00;102309.63;6010282;23;20019;-72
2022/12/01 03:24:48;;;;;;;7.03;6.40;;;;;;;5.16;100.00;102313.09;6032290;23;20466;-72
2022/12/01 03:27:18;;;;;;;19.42;8.30;;;;;;;4.98;100.00;102283.63;6009103;23;20078;-72
2022/12/01 03:29:48;;;;;;;8.43;6.97;;;;;;;3.47;100.00;102095.97;6035550;23;20019;-72
2022/12/01 03:32:26;;;;;;;11.73;9.73;;;;;;;5.02;100.00;102300.13;6010860;23;20095;-72
2022/12/01 03:35:09;;;;;;;5.85;5.43;;;;;;;4.52;100.00;102205.75;6044577;23;20019;-72
2022/12/01 03:38:12;;;;;;;7.97;7.13;;;;;;;4.88;100.00;102257.66;5991972;23;20019;-73
2022/12/01 03:40:40;;;;;;;8.15;6.40;;;;;;;5.24;100.00;102316.50;6039279;23;20014;-72
2022/12/01 03:43:12;;;;;;;7.80;7.13;;;;;;;4.48;100.00;102193.63;6018084;23;20019;-73
2022/12/01 03:46:01;;;;;;;7.63;6.90;;;;;;;5.23;100.00;102299.16;6038239;23;20031;-73
2022/12/01 03:48:29;;;;;;;10.73;9.07;;;;;;;4.48;100.00;102172.84;6014624;23;20344;-72
2022/12/01 03:51:14;;;;;;;7.85;6.40;;;;;;;4.27;100.00;102155.59;5974577;23;20097;-72
2022/12/01 03:53:58;;;;;;;12.57;7.90;;;;;;;5.22;100.00;102323.47;6036183;23;20041;-72
2022/12/01 03:56:31;;;;;;;16.52;6.80;;;;;;;4.45;100.00;102190.19;6016195;23;20022;-73
2022/12/01 03:59:01;;;;;;;12.43;8.38;;;;;;;5.25;100.00;102312.16;6039346;23;20037;-74
2022/12/01 04:01:34;;;;;;;10.35;7.88;;;;;;;4.64;100.00;102224.81;6015042;23;20175;-73
2022/12/01 04:04:12;;;;;;;9.45;7.70;;;;;;;5.12;100.00;102300.94;6052311;23;20027;-73
2022/12/01 04:06:43;;;;;;;16.05;7.75;;;;;;;4.94;100.00;102281.06;6024662;23;20101;-73
2022/12/01 04:09:09;;;;;;;14.40;7.72;;;;;;;4.57;100.00;102239.53;6024148;23;20022;-72
2022/12/01 04:14:21;;;;;;;9.55;6.93;;;;;;;4.50;100.00;102230.03;6039093;23;20035;-72
2022/12/01 04:16:47;;;;;;;10.98;7.47;;;;;;;4.96;100.00;102302.75;5987094;23;20082;-72
2022/12/01 04:19:14;;;;;;;11.93;7.10;;;;;;;4.55;100.00;102212.69;6046378;23;20013;-72
2022/12/01 04:21:40;;;;;;;13.02;6.38;;;;;;;3.99;100.00;102118.41;6023998;23;20015;-72
2022/12/01 04:24:07;;;;;;;7.32;6.22;;;;;;;4.82;100.00;102266.34;6048899;23;20042;-72
2022/12/01 04:26:35;;;;;;;15.63;7.50;;;;;;;4.60;100.00;102223.94;6011894;23;20320;-72
2022/12/01 04:29:05;;;;;;;9.35;7.10;;;;;;;5.12;100.00;102303.56;6042752;23;20032;-72
2022/12/01 04:31:32;;;;;;;11.88;7.68;;;;;;;4.96;100.00;102272.38;5997110;23;20061;-72
2022/12/01 04:33:59;;;;;;;9.43;5.97;;;;;;;4.54;100.00;102204.03;6050298;23;20081;-71
2022/12/01 04:36:28;;;;;;;8.02;6.75;;;;;;;5.10;100.00;102298.34;6012548;23;20440;-72
2022/12/01 04:38:55;;;;;;;16.30;8.25;;;;;;;4.52;100.00;102220.50;6041524;23;20011;-72
2022/12/01 04:41:21;;;;;;;13.55;8.40;;;;;;;1.21;100.00;101682.97;6006502;23;20035;-72
2022/12/01 04:43:47;;;;;;;9.88;6.32;;;;;;;4.88;100.00;102281.94;6039869;23;20026;-72
2022/12/01 04:46:14;;;;;;;17.98;7.45;;;;;;;5.07;100.00;102297.50;6024359;23;20023;-73
2022/12/01 04:48:43;;;;;;;7.70;6.97;;;;;;;4.89;100.00;102275.00;6019202;23;20045;-73
2022/12/01 04:51:09;;;;;;;16.80;6.43;;;;;;;4.80;100.00;102244.69;5994761;23;20030;-72
2022/12/01 04:53:36;;;;;;;12.73;8.63;;;;;;;5.04;100.00;102298.38;6045122;23;20021;-72
2022/12/01 04:56:03;;;;;;;9.07;8.27;;;;;;;4.54;100.00;102218.75;6010050;23;21141;-73
2022/12/01 04:58:32;;;;;;;7.75;6.55;;;;;;;5.06;100.00;102295.78;6029604;23;20027;-72
2022/12/01 05:01:03;;;;;;;10.00;6.25;;;;;;;5.02;100.00;102289.72;6010739;23;20019;-73
2022/12/01 05:03:30;;;;;;;7.80;7.07;;;;;;;4.13;100.00;102134.84;6042858;23;20511;-72
2022/12/01 05:06:05;;;;;;;6.00;5.13;;;;;;;4.38;100.00;102171.16;5989644;23;20019;-74
2022/12/01 05:08:33;;;;;;;10.48;8.38;;;;;;;2.82;100.00;101982.69;6044266;23;20101;-73
2022/12/01 05:11:00;;;;;;;8.18;7.38;;;;;;;4.64;100.00;102217.00;6008705;23;20019;-72
2022/12/01 05:13:27;;;;;;;14.32;7.78;;;;;;;4.91;100.00;102258.53;6040661;23;20026;-72
2022/12/01 05:16:03;;;;;;;17.33;7.47;;;;;;;4.96;100.00;102266.31;6016282;23;20003;-73
2022/12/01 05:18:30;;;;;;;9.63;6.00;;;;;;;5.05;100.00;102271.50;6041197;23;20655;-73
2022/12/01 05:20:56;;;;;;;10.93;7.82;;;;;;;4.24;100.00;102144.34;5986029;23;20026;-73
2022/12/01 05:23:24;;;;;;;17.58;6.80;;;;;;;4.51;100.00;102165.06;6030330;23;20026;-72
2022/12/01 05:25:51;;;;;;;8.15;7.32;;;;;;;3.64;100.00;102066.53;6013528;23;20023;-73
2022/12/01 05:28:18;;;;;;;6.18;5.65;;;;;;;4.96;100.00;102253.31;6058186;23;20065;-73
2022/12/01 05:30:45;;;;;;;10.15;7.72;;;;;;;4.50;100.00;102170.25;6017855;23;20042;-73
2022/12/01 05:33:11;;;;;;;6.57;5.97;;;;;;;5.10;100.00;102272.31;6041248;23;20097;-73
2022/12/01 05:35:38;;;;;;;9.63;7.20;;;;;;;4.99;100.00;102251.56;6013339;23;20031;-73
2022/12/01 05:38:04;;;;;;;10.15;8.57;;;;;;;4.96;100.00;102258.50;6035302;23;20382;-73
2022/12/01 05:40:34;;;;;;;7.57;6.20;;;;;;;4.84;100.00;102224.75;6001986;23;20017;-72
2022/12/01 05:43:00;;;;;;;6.15;5.65;;;;;;;5.13;100.00;102272.31;6029329;23;20037;-73
2022/12/01 05:45:27;;;;;;;8.40;7.72;;;;;;;4.34;100.00;102159.88;6008395;23;20368;-72
2022/12/01 05:47:57;;;;;;;18.33;7.68;;;;;;;4.73;100.00;102223.03;6037775;23;20038;-72
2022/12/01 05:50:24;;;;;;;12.80;7.45;;;;;;;5.13;100.00;102276.63;6013554;23;20027;-73
2022/12/01 05:52:51;;;;;;;11.38;6.93;;;;;;;4.87;100.00;102237.72;6039325;23;20023;-72
2022/12/01 05:55:18;;;;;;;13.32;7.75;;;;;;;5.15;100.00;102283.59;5995558;23;20151;-72
2022/12/01 05:57:44;;;;;;;8.02;7.43;;;;;;;4.24;100.00;102189.38;6024700;23;20018;-72
2022/12/01 06:00:12;;;;;;;7.30;6.60;;;;;;;4.79;100.00;102243.84;6023637;23;20015;-72
2022/12/01 06:02:40;;;;;;;6.85;6.20;;;;;;;5.06;100.00;102280.16;6040438;23;20124;-72
2022/12/01 06:05:07;;;;;;;7.68;6.68;;;;;;;5.07;100.00;102285.38;5992195;23;20123;-72
2022/12/01 06:07:34;;;;;;;12.55;7.57;;;;;;;4.67;100.00;102233.47;6045836;23;20420;-72
2022/12/01 06:10:01;;;;;;;11.77;6.65;;;;;;;4.44;100.00;102186.72;6021424;23;20058;-73
2022/12/01 06:12:28;;;;;;;7.05;6.40;;;;;;;5.05;100.00;102300.13;6036725;23;20232;-73
2022/12/01 06:14:54;;;;;;;9.90;6.60;;;;;;;4.89;100.00;102265.47;6007760;23;20015;-73
2022/12/01 06:17:20;;;;;;;14.27;8.13;;;;;;;4.77;100.00;102248.19;6021679;23;20266;-72
2022/12/01 06:19:47;;;;;;;7.88;6.03;;;;;;;5.07;100.00;102300.97;6020985;23;20036;-73
2022/12/01 06:22:14;;;;;;;8.82;6.68;;;;;;;4.82;100.00;102250.75;6048345;23;20200;-73
2022/12/01 06:24:40;;;;;;;8.30;6.18;;;;;;;3.38;100.00;102031.09;6015432;23;20042;-73
2022/12/01 06:27:07;;;;;;;6.72;6.18;;;;;;;5.08;100.00;102312.25;6021152;23;20019;-73
2022/12/01 06:29:33;;;;;;;8.93;7.28;;;;;;;3.68;100.00;102123.63;6007621;23;20035;-73
2022/12/01 06:32:07;;;;;;;10.05;8.05;;;;;;;3.75;100.00;102112.38;6024964;23;20022;-73
2022/12/01 06:34:33;;;;;;;10.65;7.15;;;;;;;4.36;100.00;102204.94;5966904;23;20054;-72
2022/12/01 06:37:00;;;;;;;7.10;6.25;;;;;;;5.08;100.00;102326.13;6047753;23;20022;-73
2022/12/01 06:39:26;;;;;;;9.45;6.72;;;;;;;5.08;100.00;102346.94;6018976;23;20035;-73
2022/12/01 06:41:55;;;;;;;8.45;7.28;;;;;;;5.08;100.00;102326.13;6038826;23;20019;-72
2022/12/01 06:44:22;;;;;;;9.27;7.53;;;;;;;4.24;100.00;102230.09;6014327;23;20062;-73
2022/12/01 06:46:51;;;;;;;8.32;7.40;;;;;;;5.07;100.00;102326.13;5989355;23;20019;-73
2022/12/01 06:49:19;;;;;;;10.60;6.97;;;;;;;4.46;100.00;102217.91;5993454;23;20023;-73
2022/12/01 06:51:45;;;;;;;8.55;6.25;;;;;;;5.13;100.00;102340.00;6049150;23;20044;-73
2022/12/01 06:54:13;;;;;;;12.18;6.43;;;;;;;3.94;100.00;102143.53;6018508;23;20017;-73
2022/12/01 06:56:41;;;;;;;8.10;7.35;;;;;;;4.96;100.00;102318.34;6011701;23;20027;-73
2022/12/01 06:59:08;;;;;;;14.85;8.70;;;;;;;4.50;100.00;102243.91;6023496;23;20047;-73
2022/12/01 07:01:35;;;;;;;11.20;7.63;;;;;;;4.17;100.00;102193.72;6042693;23;20428;-73
2022/12/01 07:04:02;;;;;;;6.97;5.80;;;;;;;4.71;100.00;102289.81;6008143;23;20027;-73
2022/12/01 07:06:29;;;;;;;6.63;6.07;;;;;;;4.31;100.00;102224.88;6040301;23;20229;-73
2022/12/01 07:08:56;;;;;;;9.77;7.68;;;;;;;4.88;100.00;102331.38;6024272;23;20037;-73
2022/12/01 07:11:23;;;;;;;7.97;6.45;;;;;;;4.56;100.00;102253.44;6015906;23;20081;-71
2022/12/01 07:13:54;;;;;;;6.80;6.32;;;;;;;5.07;100.00;102352.13;5992562;23;20031;-72
2022/12/01 07:16:21;;;;;;;12.75;7.13;;;;;;;4.91;100.00;102323.56;6033465;23;20018;-72
2022/12/01 07:18:48;;;;;;;10.13;7.72;;;;;;;4.39;100.00;102225.72;5992024;23;20023;-76
2022/12/01 07:21:15;;;;;;;6.30;5.80;;;;;;;5.10;100.00;102354.75;6017058;23;20029;-76
2022/12/01 07:23:42;;;;;;;8.25;6.57;;;;;;;4.97;100.00;102320.94;6009899;23;20031;-76
2022/12/01 07:26:15;;;;;;;9.80;7.95;;;;;;;4.74;100.00;102307.13;6027825;23;20021;-75
2022/12/01 07:28:42;;;;;;;12.40;7.22;;;;;;;4.57;100.00;102265.53;6007634;23;20030;-76
2022/12/01 07:31:11;;;;;;;8.35;7.47;;;;;;;4.86;100.00;102317.50;6027243;23;20034;-75
2022/12/01 07:33:39;;;;;;;10.25;6.93;;;;;;;5.10;100.00;102352.13;6006960;23;20182;-76
2022/12/01 07:36:06;;;;;;;7.85;7.10;;;;;;;4.64;100.00;102280.28;6037542;23;20370;-76
2022/12/01 07:38:33;;;;;;;13.85;7.53;;;;;;;4.72;100.00;102291.53;6004894;23;20019;-76
2022/12/01 07:41:02;;;;;;;9.75;7.75;;;;;;;5.10;100.00;102352.13;6035674;23;20598;-76
2022/12/01 07:43:30;;;;;;;5.70;5.25;;;;;;;4.88;100.00;102314.91;6001552;23;20039;-76
2022/12/01 07:46:07;;;;;;;15.48;7.20;;;;;;;5.10;100.00;102359.94;6031645;23;20011;-77
2022/12/01 07:48:36;;;;;;;9.98;7.85;;;;;;;5.11;100.00;102354.75;6001425;23;20098;-76
2022/12/01 07:51:04;;;;;;;7.15;6.57;;;;;;;4.74;100.00;102301.94;6032983;23;20030;-76
2022/12/01 07:53:31;;;;;;;13.05;6.82;;;;;;;4.75;100.00;102295.84;6006242;23;20023;-76
2022/12/01 07:55:58;;;;;;;17.92;6.75;;;;;;;4.74;100.00;102283.72;6020764;23;20039;-76
2022/12/01 07:58:31;;;;;;;7.53;6.78;;;;;;;5.00;100.00;102339.13;6001474;23;20259;-79
2022/12/01 08:01:03;;;;;;;9.80;8.55;;;;;;;4.66;100.00;102286.34;6033991;23;20159;-77
2022/12/01 08:03:30;;;;;;;12.50;7.35;;;;;;;4.60;100.00;102289.81;6003345;23;20019;-77
2022/12/01 08:05:57;;;;;;;20.35;6.85;;;;;;;4.73;100.00;102300.19;6038665;23;20030;-76
2022/12/01 08:08:24;;;;;;;7.53;6.35;;;;;;;5.17;100.00;102365.13;6011058;23;20636;-77
2022/12/01 08:10:52;;;;;;;12.93;6.57;;;;;;;5.17;100.00;102372.06;6032812;23;20014;-76
2022/12/01 08:13:19;;;;;;;7.75;6.30;;;;;;;4.78;100.00;102299.31;5984991;23;20474;-76
2022/12/01 08:15:45;;;;;;;10.38;7.45;;;;;;;4.94;100.00;102341.75;6032192;23;20229;-77
2022/12/01 08:18:12;;;;;;;7.93;6.80;;;;;;;4.71;100.00;102291.50;6006231;23;20351;-77
2022/12/01 08:20:38;;;;;;;15.75;7.45;;;;;;;5.06;100.00;102359.09;6032030;23;20568;-76
2022/12/01 08:23:06;;;;;;;10.90;7.20;;;;;;;4.09;100.00;102195.47;6001103;23;20223;-78
2022/12/01 08:25:33;;;;;;;10.10;7.68;;;;;;;5.23;100.00;102381.59;6028356;23;20466;-77
2022/12/01 08:28:00;;;;;;;7.00;6.40;;;;;;;5.20;100.00;102382.47;5995233;23;20027;-77
2022/12/01 08:30:27;;;;;;;12.93;7.72;;;;;;;5.17;100.00;102387.66;6004878;23;20329;-76
2022/12/01 08:32:55;;;;;;;9.10;8.20;;;;;;;5.04;100.00;102371.22;5999700;23;20086;-76
2022/12/01 08:35:23;;;;;;;10.02;7.45;;;;;;;5.20;100.00;102383.31;6031515;23;20387;-76
2022/12/01 08:37:53;;;;;;;16.90;7.15;;;;;;;4.15;100.00;102204.97;6000603;23;20047;-76
2022/12/01 08:40:20;;;;;;;9.60;7.07;;;;;;;5.18;100.00;102385.06;6027341;23;20045;-76
2022/12/01 08:42:47;;;;;;;9.52;6.65;;;;;;;5.22;100.00;102390.28;6006987;23;20507;-77
2022/12/01 08:45:13;;;;;;;9.73;8.10;;;;;;;5.16;100.00;102389.41;6031994;23;20381;-75
2022/12/01 08:47:40;;;;;;;11.60;8.40;;;;;;;4.77;100.00;102320.09;6004899;23;20039;-76
2022/12/01 08:50:07;;;;;;;6.93;6.35;;;;;;;4.80;100.00;102325.31;6036168;23;20018;-77
2022/12/01 08:52:34;;;;;;;16.75;7.88;;;;;;;4.85;100.00;102325.31;6002228;23;20020;-76
2022/12/01 08:55:00;;;;;;;16.13;7.38;;;;;;;4.65;100.00;102289.81;6029365;23;20097;-77
2022/12/01 08:57:30;;;;;;;12.82;6.88;;;;;;;5.30;100.00;102391.97;6002754;23;20082;-77
2022/12/01 08:59:57;;;;;;;13.95;7.85;;;;;;;4.49;100.00;102265.56;6037540;23;20336;-76
2022/12/01 09:02:23;;;;;;;13.52;8.73;;;;;;;4.89;100.00;102334.81;5999742;23;20027;-77
2022/12/01 09:04:50;;;;;;;6.50;5.97;;;;;;;5.23;100.00;102397.19;6040305;23;20024;-76
2022/12/01 09:07:18;;;;;;;13.48;7.47;;;;;;;5.26;100.00;102398.06;6008706;23;20027;-76
2022/12/01 09:09:51;;;;;;;11.60;6.93;;;;;;;5.16;100.00;102375.53;6023179;23;20019;-77
2022/12/01 09:12:18;;;;;;;6.43;5.85;;;;;;;5.06;100.00;102363.44;6005285;23;20030;-76
2022/12/01 09:14:47;;;;;;;14.32;9.50;;;;;;;5.30;100.00;102391.97;6028889;23;20003;-76
2022/12/01 09:17:14;;;;;;;12.77;8.57;;;;;;;5.23;100.00;102392.84;5983000;23;20023;-76
2022/12/01 09:19:41;;;;;;;26.45;9.57;;;;;;;4.90;100.00;102358.25;6040157;23;20078;-77
2022/12/01 09:22:08;;;;;;;8.75;7.35;;;;;;;4.77;100.00;102331.41;5992605;23;20052;-77
2022/12/01 09:24:35;;;;;;;9.10;7.97;;;;;;;4.93;100.00;102380.78;6028940;23;20405;-76
2022/12/01 09:27:02;;;;;;;8.77;7.18;;;;;;;4.85;100.00;102351.31;6000998;23;20043;-76
2022/12/01 09:29:29;;;;;;;13.05;9.85;;;;;;;5.30;100.00;102412.81;6030993;23;20057;-78
2022/12/01 09:31:58;;;;;;;12.77;7.25;;;;;;;5.23;100.00;102392.00;6003253;23;20019;-78
2022/12/01 09:34:25;;;;;;;9.90;8.57;;;;;;;4.97;100.00;102366.91;6040746;23;20362;-75
2022/12/01 09:36:58;;;;;;;7.90;6.78;;;;;;;4.51;100.00;102286.34;5975135;23;20567;-76
2022/12/01 09:39:25;;;;;;;8.68;7.03;;;;;;;5.35;100.00;102407.56;6021693;23;20240;-74
2022/12/01 09:42:00;;;;;;;7.13;6.43;;;;;;;5.45;100.00;102414.47;6010131;23;20031;-76
2022/12/01 09:44:44;;;;;;;12.77;10.23;;;;;;;5.21;100.00;102363.38;6027399;23;20031;-77
2022/12/01 09:47:17;;;;;;;9.13;6.97;;;;;;;4.82;100.00;102288.91;6001748;23;20104;-77
2022/12/01 09:49:54;;;;;;;13.05;6.25;;;;;;;5.15;100.00;102343.44;5993868;23;20014;-76
2022/12/01 09:52:23;;;;;;;8.48;7.13;;;;;;;5.53;100.00;102401.44;6006319;23;20113;-77
2022/12/01 09:54:50;;;;;;;15.23;7.32;;;;;;;5.31;100.00;102390.22;6011441;23;20257;-76
2022/12/01 09:57:28;;;;;;;7.30;6.35;;;;;;;5.05;100.00;102349.56;6006702;23;20498;-77
2022/12/01 09:59:55;;;;;;;9.27;7.70;;;;;;;4.91;100.00;102317.47;6033009;23;20019;-76
2022/12/01 10:02:32;;;;;;;17.73;8.65;;;;;;;5.43;100.00;102397.13;6001097;23;20496;-78
2022/12/01 10:05:04;;;;;;;11.20;6.90;;;;;;;5.00;100.00;102325.28;6039174;23;20090;-74
2022/12/01 10:07:43;;;;;;;7.82;7.07;;;;;;;5.31;100.00;102366.81;6006179;23;20425;-77
2022/12/01 10:10:18;;;;;;;18.38;8.82;;;;;;;5.48;100.00;102391.06;6014225;23;20023;-76
2022/12/01 10:12:46;;;;;;;15.30;8.13;;;;;;;5.55;100.00;102399.69;6005070;23;20027;-76
2022/12/01 10:15:37;;;;;;;7.05;6.40;;;;;;;5.55;100.00;102400.59;6005837;23;20046;-76
2022/12/01 10:18:09;;;;;;;12.25;8.38;;;;;;;5.47;100.00;102393.66;6006191;23;20031;-75
2022/12/01 10:20:48;;;;;;;9.27;7.10;;;;;;;5.37;100.00;102404.13;6032315;23;20400;-75
2022/12/01 10:23:43;;;;;;;5.93;5.45;;;;;;;5.38;100.00;102395.44;5986246;23;20024;-76
2022/12/01 10:26:14;;;;;;;10.07;7.68;;;;;;;5.42;100.00;102392.81;6027561;23;20018;-76
2022/12/01 10:28:51;;;;;;;8.88;7.63;;;;;;;5.53;100.00;102391.91;6009447;23;20109;-74
2022/12/01 10:31:23;;;;;;;6.22;5.63;;;;;;;5.56;100.00;102391.03;6004268;23;20165;-75
2022/12/01 10:33:59;;;;;;;11.23;6.43;;;;;;;5.42;100.00;102367.66;6014413;23;20046;-75
2022/12/01 10:36:28;;;;;;;13.15;8.95;;;;;;;5.38;100.00;102338.16;6035733;23;20087;-77
2022/12/01 10:38:55;;;;;;;11.95;6.35;;;;;;;5.15;100.00;102280.09;6003439;23;20384;-77
2022/12/01 10:41:24;;;;;;;6.70;5.38;;;;;;;5.24;100.00;102308.72;5996048;23;20027;-76
2022/12/01 10:43:56;;;;;;;11.00;8.05;;;;;;;5.84;100.00;102372.66;6002971;23;20057;-77
2022/12/01 10:46:37;;;;;;;13.88;7.47;;;;;;;5.91;100.00;102376.94;5989228;23;20049;-76
2022/12/01 10:49:09;;;;;;;12.07;6.20;;;;;;;5.90;100.00;102370.88;6001406;23;20038;-76
2022/12/01 10:51:48;;;;;;;12.93;7.60;;;;;;;5.87;100.00;102365.69;6032119;23;20386;-76
2022/12/01 10:54:15;;;;;;;8.35;7.03;;;;;;;5.83;100.00;102370.91;5998828;23;20016;-77
2022/12/01 10:56:46;;;;;;;9.20;8.20;;;;;;;5.33;100.00;102286.97;6000279;23;20554;-78
2022/12/01 10:59:30;;;;;;;13.05;6.28;;;;;;;5.71;100.00;102366.63;5998330;23;20088;-76
2022/12/01 11:01:58;;;;;;;10.18;6.65;;;;;;;5.67;100.00;102368.38;6035442;23;20038;-77
2022/12/01 11:04:44;;;;;;;8.68;7.00;;;;;;;5.56;100.00;102370.19;6002083;23;20544;-76
2022/12/01 11:07:33;;;;;;;13.95;6.85;;;;;;;5.05;100.00;102279.31;6034321;23;20131;-77
2022/12/01 11:10:19;;;;;;;11.02;6.72;;;;;;;5.27;100.00;102337.34;6003575;23;20015;-77
2022/12/01 11:12:55;;;;;;;9.43;7.88;;;;;;;5.43;100.00;102379.78;6029102;23;20135;-77
2022/12/01 11:15:29;;;;;;;8.85;7.95;;;;;;;5.05;100.00;102327.84;5980957;23;20015;-74
2022/12/01 11:18:02;;;;;;;8.00;4.90;;;;;;;5.23;100.00;102360.75;6012831;23;20381;-77
2022/12/01 11:20:28;;;;;;;;;;;;;;;5.27;100.00;102380.72;6000358;23;20019;-77
2022/12/01 11:23:16;;;;;;;8.20;5.72;;;;;;;5.22;100.00;102380.72;6038964;23;19911;-76
2022/12/01 11:26:11;;;;;;;7.38;6.63;;;;;;;5.23;100.00;102381.59;6002838;23;20019;-76
2022/12/01 11:29:03;;;;;;;6.40;5.53;;;;;;;5.13;100.00;102359.91;6004050;23;20106;-76
2022/12/01 11:31:39;;;;;;;8.52;7.65;;;;;;;4.74;100.00;102276.78;5963975;23;20407;-76
2022/12/01 11:34:16;;;;;;;8.38;5.70;;;;;;;5.29;100.00;102360.75;6027161;23;20031;-76
2022/12/01 11:36:46;;;;;;;17.48;6.40;;;;;;;5.06;100.00;102337.41;5978792;23;20536;-75
2022/12/01 11:39:31;;;;;;;7.60;6.85;;;;;;;5.12;100.00;102345.19;5977701;23;20528;-76
2022/12/01 11:42:13;;;;;;;8.95;7.53;;;;;;;5.12;100.00;102335.63;6024694;23;20039;-74